Accueil
METAR-TAF:

METAR-TAF

Aéroports :

Johnson County Executive Airport

Olathe, Kansas, États-Unis

latitude: 38-51-00N, longitude: 094-44-21W, altitude: 334 m

Observation

Le bulletin a été fait il y a 27 minutes, à 23:53 UTC
Vent 13 kt de nord avec des rafales jusqu'à 19 kt
Température -7°C
Humidité 57%
Pression 1035 hPa
Visibilité: 16.1 km
Ciel clair

METAR: KOJC 112353Z 36013G19KT 10SM CLR M07/M14 A3057 RMK AO2 PK WND 36027/2316 SLP368 60000 T10721139 11056 21078 53026 $

Heure: 18:20 (00:20 UTC)


TAF: absent

Observations et prévisions météorologiques de plus de 4000 aéroports (messages METAR et TAF).

Les stations disponibles sont représentées par des disques jaunes et rouges sur la carte.

Passer la souris dessus pour voir le nom de la station.

Cliquer dessus pour voir les observations et prévisions météorologiques.

Pour changer de carte: cliquez sur les boutons verts avec une croix noire pour zoomer, sur le bouton vert avec un tiret pour effectuer un zoom arrière, ou sur les flèches vertes pour les cartes adjacentes.


METAR-TAF: